Archival Weather

Glendale Muni

Glendale, Arizona (KGEU)

Report from: Wednesday, December 6, 2023 6:52 PM MST
Current time: Wednesday, April 24, 2024 12:44 PM MST

Current weather – Weather history – Daily summaries
Weather forecast

Temperature20.0°C (68.0°F)
Dew point1.0°C (33.8°F)
Winds Calm
Visibility10 mi. (16.1 km)
Clouds Few clouds 25,000 ft. (7,620 m)
Altimeter29.97 in.Hg (1015 mB)
Relative humidity28 %
Density altitude632 ft. (193 m)
Flight conditions Visual Meteorological Conditions
Raw dataKGEU 070152Z 00000KT 10SM FEW250 20/01 A2997
An error has occurred. This application may no longer respond until reloaded. Reload 🗙